createdAt,value
2022-08-04T00:00:06.455Z,72.58
2022-08-04T00:01:06.453Z,72.58
2022-08-04T00:02:06.430Z,72.58
2022-08-04T00:03:06.402Z,72.48
2022-08-04T00:04:06.392Z,72.18
2022-08-04T00:05:06.385Z,72.48
2022-08-04T00:06:06.353Z,72.58
2022-08-04T00:07:06.351Z,71.39
2022-08-04T00:08:06.333Z,72.28
2022-08-04T00:09:06.314Z,72.48
2022-08-04T00:10:06.316Z,71.78
2022-08-04T00:11:06.284Z,72.88
2022-08-04T00:12:06.320Z,72.78
2022-08-04T00:13:06.257Z,72.38
2022-08-04T00:14:06.250Z,72.48
2022-08-04T00:15:06.230Z,72.61
2022-08-04T00:16:06.272Z,72.91
2022-08-04T00:17:06.247Z,72.61
2022-08-04T00:18:06.214Z,72.81
2022-08-04T00:19:06.181Z,73.01
2022-08-04T00:20:06.194Z,72.91
2022-08-04T00:21:06.152Z,72.91
2022-08-04T00:22:06.162Z,72.81
2022-08-04T00:23:06.308Z,72.91
2022-08-04T00:24:11.447Z,72.91
2022-08-04T00:25:07.111Z,73.11
2022-08-04T00:26:06.134Z,73.01
2022-08-04T00:27:06.106Z,73.11
2022-08-04T00:28:06.084Z,73.11
2022-08-04T00:29:06.050Z,72.41
2022-08-04T00:30:06.067Z,72.52
2022-08-04T00:31:06.029Z,72.22
2022-08-04T00:32:06.045Z,72.52
2022-08-04T00:33:06.000Z,72.22
2022-08-04T00:34:06.096Z,73.01
2022-08-04T00:35:05.977Z,72.91
2022-08-04T00:36:05.984Z,72.91
2022-08-04T00:37:05.972Z,73.31
2022-08-04T00:38:05.940Z,72.81
2022-08-04T00:39:05.953Z,72.91
2022-08-04T00:40:05.932Z,72.71
2022-08-04T00:41:05.900Z,72.41
2022-08-04T00:42:05.920Z,72.95
2022-08-04T00:43:05.903Z,73.14
2022-08-04T00:44:05.864Z,73.14
2022-08-04T00:45:05.862Z,72.95
2022-08-04T00:46:16.158Z,73.14
2022-08-04T00:47:06.819Z,72.95
2022-08-04T00:48:05.843Z,73.25
2022-08-04T00:49:05.793Z,72.95
2022-08-04T00:50:05.788Z,73.05
2022-08-04T00:51:05.770Z,72.95
2022-08-04T00:52:32.254Z,72.85
2022-08-04T00:53:06.753Z,72.55
2022-08-04T00:54:05.731Z,72.75
2022-08-04T00:55:09.122Z,72.65
2022-08-04T00:56:05.718Z,72.75
2022-08-04T00:57:05.691Z,72.85
2022-08-04T00:58:05.712Z,72.75
2022-08-04T00:59:05.681Z,73.25
2022-08-04T01:00:05.659Z,73.35
2022-08-04T01:01:05.713Z,73.55
2022-08-04T01:02:05.627Z,72.85
2022-08-04T01:03:05.643Z,73.18
2022-08-04T01:04:05.633Z,73.28
2022-08-04T01:05:05.612Z,73.08
2022-08-04T01:06:05.592Z,73.18
2022-08-04T01:07:05.581Z,73.58
2022-08-04T01:08:05.563Z,73.48
2022-08-04T01:09:05.530Z,73.08
2022-08-04T01:10:05.528Z,73.28
2022-08-04T01:11:05.532Z,72.88
2022-08-04T01:12:05.499Z,72.68
2022-08-04T01:13:10.043Z,73.48
2022-08-04T01:14:06.484Z,73.08
2022-08-04T01:15:05.475Z,73.28
2022-08-04T01:16:05.467Z,72.88
2022-08-04T01:17:05.465Z,73.11
2022-08-04T01:18:06.447Z,73.38
2022-08-04T01:19:05.423Z,73.28
2022-08-04T01:20:05.445Z,72.42
2022-08-04T01:21:05.381Z,73.11
2022-08-04T01:22:05.415Z,73.32
2022-08-04T01:23:05.363Z,73.42
2022-08-04T01:24:05.355Z,72.81
2022-08-04T01:25:08.199Z,73.52
2022-08-04T01:26:38.762Z,73.02
2022-08-04T01:27:06.333Z,73.22
2022-08-04T01:28:05.321Z,73.72
2022-08-04T01:29:05.302Z,73.42
2022-08-04T01:30:05.260Z,73.61
2022-08-04T01:31:05.250Z,73.91
2022-08-04T01:32:05.239Z,74.11
2022-08-04T01:33:05.275Z,73.72
2022-08-04T01:34:05.227Z,73.91
2022-08-04T01:35:05.202Z,73.82
2022-08-04T01:36:05.266Z,73.72
2022-08-04T01:37:05.194Z,73.72
2022-08-04T01:38:21.156Z,73.52
2022-08-04T01:39:06.267Z,73.52
2022-08-04T01:40:05.129Z,73.22
2022-08-04T01:41:05.147Z,73.61
2022-08-04T01:42:05.164Z,73.72
2022-08-04T01:43:05.133Z,73.82
2022-08-04T01:44:05.095Z,73.91
2022-08-04T01:45:05.070Z,74.02
2022-08-04T01:46:05.051Z,73.91
2022-08-04T01:47:05.050Z,74.11
2022-08-04T01:48:05.063Z,74.25
2022-08-04T01:49:05.022Z,74.15
2022-08-04T01:50:05.020Z,73.85
2022-08-04T01:51:05.015Z,73.25
2022-08-04T01:52:04.997Z,73.95
2022-08-04T01:53:04.989Z,74.35
2022-08-04T01:54:04.986Z,74.25
2022-08-04T01:55:04.965Z,74.35
2022-08-04T01:56:04.932Z,74.55
2022-08-04T01:57:36.723Z,74.65
2022-08-04T01:58:05.940Z,74.95
2022-08-04T01:59:04.890Z,74.65
2022-08-04T02:00:04.895Z,74.55
2022-08-04T02:01:08.122Z,74.65
2022-08-04T02:02:04.960Z,74.35
2022-08-04T02:03:04.912Z,74.58
2022-08-04T02:04:21.937Z,73.99
2022-08-04T02:05:05.811Z,74.19
2022-08-04T02:06:04.811Z,74.49
2022-08-04T02:07:04.789Z,74.38
2022-08-04T02:08:04.780Z,74.38
2022-08-04T02:09:04.781Z,74.58
2022-08-04T02:10:04.760Z,74.68
2022-08-04T02:11:04.762Z,74.68
2022-08-04T02:12:04.719Z,74.68
2022-08-04T02:13:04.728Z,74.88
2022-08-04T02:14:04.691Z,74.79
2022-08-04T02:15:04.687Z,74.98
2022-08-04T02:16:04.705Z,74.88
2022-08-04T02:17:04.659Z,74.79
2022-08-04T02:18:04.671Z,74.98
2022-08-04T02:19:04.639Z,74.98
2022-08-04T02:20:04.651Z,75.09
2022-08-04T02:21:04.630Z,75.09
2022-08-04T02:22:04.616Z,74.98
2022-08-04T02:23:04.620Z,75.09
2022-08-04T02:24:04.580Z,75.28
2022-08-04T02:25:04.569Z,75.38
2022-08-04T02:26:04.549Z,75.09
2022-08-04T02:27:04.548Z,75.22
2022-08-04T02:28:04.548Z,75.22
2022-08-04T02:29:04.538Z,75.32
2022-08-04T02:30:04.502Z,75.32
2022-08-04T02:31:04.505Z,75.32
2022-08-04T02:32:04.479Z,75.32
2022-08-04T02:33:04.539Z,75.42
2022-08-04T02:34:04.461Z,75.52
2022-08-04T02:35:04.465Z,75.42
2022-08-04T02:36:04.418Z,75.52
2022-08-04T02:37:04.419Z,75.52
2022-08-04T02:38:04.388Z,75.52
2022-08-04T02:39:04.469Z,75.42
2022-08-04T02:40:04.360Z,75.62
2022-08-04T02:41:04.371Z,75.52
2022-08-04T02:42:04.354Z,75.72
2022-08-04T02:43:04.338Z,75.62
2022-08-04T02:44:04.311Z,75.62
2022-08-04T02:45:04.346Z,75.72
2022-08-04T02:46:04.318Z,75.82
2022-08-04T02:47:05.557Z,75.32
2022-08-04T02:48:28.628Z,75.62
2022-08-04T02:49:05.269Z,75.42
2022-08-04T02:50:04.249Z,75.62
2022-08-04T02:51:04.229Z,76.02
2022-08-04T02:52:04.200Z,76.12
2022-08-04T02:53:04.191Z,76.12
2022-08-04T02:54:05.205Z,76.52
2022-08-04T02:55:04.192Z,76.62
2022-08-04T02:56:04.162Z,76.72
2022-08-04T02:57:04.449Z,76.72
2022-08-04T02:58:04.152Z,76.62
2022-08-04T02:59:04.141Z,76.62
2022-08-04T03:00:04.121Z,76.92
2022-08-04T03:01:04.191Z,76.92
2022-08-04T03:02:04.082Z,77.12
2022-08-04T03:03:04.121Z,77.02
2022-08-04T03:04:04.082Z,77.12
2022-08-04T03:05:04.055Z,77.22
2022-08-04T03:06:08.716Z,77.22
2022-08-04T03:07:05.063Z,77.32
2022-08-04T03:08:04.019Z,77.42
2022-08-04T03:09:04.002Z,77.51
2022-08-04T03:10:03.977Z,77.51
2022-08-04T03:11:03.975Z,77.32
2022-08-04T03:12:03.949Z,77.32
2022-08-04T03:13:03.938Z,77.62
2022-08-04T03:14:05.222Z,77.62
2022-08-04T03:15:04.925Z,77.72
2022-08-04T03:16:03.900Z,77.82
2022-08-04T03:17:03.912Z,77.92
2022-08-04T03:18:03.891Z,77.92
2022-08-04T03:19:03.914Z,78.12
2022-08-04T03:20:03.881Z,77.92
2022-08-04T03:21:03.848Z,78.12
2022-08-04T03:22:03.842Z,78.02
2022-08-04T03:23:13.463Z,78.12
2022-08-04T03:24:04.813Z,77.82
2022-08-04T03:25:03.813Z,78.02
2022-08-04T03:26:03.791Z,78.22
2022-08-04T03:27:03.761Z,78.42
2022-08-04T03:28:03.747Z,78.22
2022-08-04T03:29:03.748Z,78.22
2022-08-04T03:30:03.738Z,77.92
2022-08-04T03:31:03.709Z,78.16
2022-08-04T03:32:03.699Z,78.05
2022-08-04T03:33:03.678Z,78.05
2022-08-04T03:34:03.685Z,78.25
2022-08-04T03:35:03.679Z,78.16
2022-08-04T03:36:10.799Z,78.45
2022-08-04T03:37:03.651Z,78.36
2022-08-04T03:38:06.309Z,78.05
2022-08-04T03:39:03.716Z,78.16
2022-08-04T03:40:03.606Z,77.56
2022-08-04T03:41:04.598Z,78.16
2022-08-04T03:42:04.860Z,77.75
2022-08-04T03:43:03.579Z,77.36
2022-08-04T03:44:03.690Z,77.42
2022-08-04T03:45:03.540Z,77.51
2022-08-04T03:46:04.541Z,77.72
2022-08-04T03:47:03.523Z,77.62
2022-08-04T03:48:03.502Z,77.62
2022-08-04T03:49:03.524Z,77.22
2022-08-04T03:50:04.436Z,77.42
2022-08-04T03:51:03.470Z,76.62
2022-08-04T03:52:03.447Z,76.52
2022-08-04T03:53:03.434Z,76.92
2022-08-04T03:54:03.433Z,77.32
2022-08-04T03:55:03.417Z,76.82
2022-08-04T03:56:03.401Z,77.02
2022-08-04T03:57:03.401Z,77.32
2022-08-04T03:58:03.381Z,76.22
2022-08-04T03:59:03.359Z,76.92
2022-08-04T04:00:03.389Z,76.82
2022-08-04T04:01:03.337Z,76.82
2022-08-04T04:02:06.827Z,76.92
2022-08-04T04:03:03.305Z,76.72
2022-08-04T04:04:03.314Z,77.22
2022-08-04T04:05:03.279Z,76.82
2022-08-04T04:06:03.275Z,76.62
2022-08-04T04:07:04.201Z,76.52
2022-08-04T04:08:03.958Z,76.52
2022-08-04T04:09:03.245Z,75.92
2022-08-04T04:10:07.081Z,76.32
2022-08-04T04:11:03.217Z,75.92
2022-08-04T04:12:03.198Z,75.72
2022-08-04T04:13:03.191Z,75.52
2022-08-04T04:14:03.166Z,75.02
2022-08-04T04:15:03.175Z,75.98
2022-08-04T04:16:03.126Z,75.38
2022-08-04T04:17:03.133Z,75.59
2022-08-04T04:18:03.117Z,76.08
2022-08-04T04:19:03.122Z,76.38
2022-08-04T04:20:03.089Z,76.28
2022-08-04T04:21:03.076Z,75.28
2022-08-04T04:22:03.055Z,75.59
2022-08-04T04:23:03.245Z,76.08
2022-08-04T04:24:03.061Z,75.18
2022-08-04T04:25:03.039Z,75.38
2022-08-04T04:26:03.021Z,74.79
2022-08-04T04:27:02.989Z,75.59
2022-08-04T04:28:43.802Z,75.59
2022-08-04T04:29:03.976Z,75.89
2022-08-04T04:30:02.954Z,75.98
2022-08-04T04:31:02.937Z,75.98
2022-08-04T04:32:02.925Z,75.89
2022-08-04T04:33:02.908Z,76.28
2022-08-04T04:34:02.930Z,76.48
2022-08-04T04:35:02.906Z,76.58
2022-08-04T04:36:02.870Z,76.38
2022-08-04T04:37:02.877Z,75.68
2022-08-04T04:38:02.854Z,75.89
2022-08-04T04:39:02.910Z,76.08
2022-08-04T04:40:03.621Z,76.38
2022-08-04T04:41:02.805Z,76.48
2022-08-04T04:42:02.806Z,75.98
2022-08-04T04:43:02.809Z,76.28
2022-08-04T04:44:02.786Z,76.38
2022-08-04T04:45:02.764Z,76.48
2022-08-04T04:46:02.751Z,76.18
2022-08-04T04:47:02.747Z,76.28
2022-08-04T04:48:09.200Z,75.98
2022-08-04T04:49:03.715Z,75.48
2022-08-04T04:50:02.684Z,75.28
2022-08-04T04:51:02.687Z,75.59
2022-08-04T04:52:02.679Z,76.28
2022-08-04T04:53:02.679Z,76.58
2022-08-04T04:54:02.652Z,76.48
2022-08-04T04:55:02.647Z,76.38
2022-08-04T04:56:02.612Z,76.18
2022-08-04T04:57:02.593Z,76.38
2022-08-04T04:58:02.614Z,76.48
2022-08-04T04:59:02.584Z,75.89
2022-08-04T05:00:02.565Z,76.18
2022-08-04T05:01:02.559Z,75.89
2022-08-04T05:02:02.548Z,75.59
2022-08-04T05:03:07.290Z,75.59
2022-08-04T05:04:03.528Z,76.18
2022-08-04T05:05:02.536Z,76.08
2022-08-04T05:06:02.476Z,76.18
2022-08-04T05:07:02.479Z,76.28
2022-08-04T05:08:04.301Z,76.58
2022-08-04T05:09:03.454Z,75.89
2022-08-04T05:10:02.436Z,75.28
2022-08-04T05:11:02.428Z,75.35
2022-08-04T05:12:04.352Z,75.74
2022-08-04T05:14:36.277Z,76.25
2022-08-04T05:14:37.544Z,75.95
2022-08-04T05:15:03.385Z,76.45
2022-08-04T05:16:02.369Z,76.34
2022-08-04T05:17:02.344Z,76.45
2022-08-04T05:18:02.324Z,76.45
2022-08-04T05:19:02.305Z,75.95
2022-08-04T05:20:02.304Z,76.34
2022-08-04T05:21:02.283Z,76.25
2022-08-04T05:22:02.275Z,76.25
2022-08-04T05:23:02.266Z,75.45
2022-08-04T05:24:02.247Z,74.15
2022-08-04T05:25:02.250Z,75.35
2022-08-04T05:26:02.223Z,74.85
2022-08-04T05:27:02.227Z,74.55
2022-08-04T05:28:02.198Z,75.35
2022-08-04T05:29:02.199Z,74.95
2022-08-04T05:30:02.220Z,74.95
2022-08-04T05:31:02.166Z,75.15
2022-08-04T05:32:02.158Z,74.15
2022-08-04T05:33:02.134Z,74.35
2022-08-04T05:34:02.112Z,73.91
2022-08-04T05:35:02.128Z,74.02
2022-08-04T05:36:18.822Z,74.51
2022-08-04T05:37:03.105Z,73.72
2022-08-04T05:38:02.076Z,73.22
2022-08-04T05:39:02.138Z,72.81
2022-08-04T05:40:02.067Z,73.11
2022-08-04T05:41:02.037Z,74.21
2022-08-04T05:42:04.702Z,73.52
2022-08-04T05:43:02.071Z,74.21
2022-08-04T05:44:01.984Z,74.21
2022-08-04T05:45:01.994Z,73.42
2022-08-04T05:46:01.980Z,73.61
2022-08-04T05:47:01.960Z,74.62
2022-08-04T05:48:01.934Z,73.91
2022-08-04T05:49:01.927Z,74.21
2022-08-04T05:50:03.187Z,74.18
2022-08-04T05:51:01.915Z,73.28
2022-08-04T05:52:01.896Z,74.68
2022-08-04T05:53:01.884Z,73.58
2022-08-04T05:54:01.852Z,74.18
2022-08-04T05:55:01.869Z,74.38
2022-08-04T05:56:01.831Z,74.77
2022-08-04T05:57:01.844Z,74.38
2022-08-04T05:58:01.844Z,74.28
2022-08-04T05:59:01.822Z,73.68
2022-08-04T06:00:10.537Z,74.08
2022-08-04T06:01:02.788Z,73.28
2022-08-04T06:02:01.806Z,73.68
2022-08-04T06:03:01.739Z,74.28
2022-08-04T06:04:01.745Z,72.68
2022-08-04T06:05:01.731Z,72.78
2022-08-04T06:06:01.736Z,73.88
2022-08-04T06:07:01.693Z,73.88
2022-08-04T06:08:12.667Z,74.18
2022-08-04T06:09:02.676Z,73.48
2022-08-04T06:10:01.653Z,72.28
2022-08-04T06:11:01.677Z,71.78
2022-08-04T06:12:03.726Z,71.39
2022-08-04T06:13:01.613Z,69.59
2022-08-04T06:14:01.615Z,69.26
2022-08-04T06:15:01.583Z,69.76
2022-08-04T06:16:01.606Z,68.96
2022-08-04T06:17:01.569Z,68.76
2022-08-04T06:19:56.854Z,67.47
2022-08-04T06:19:59.551Z,66.37
2022-08-04T06:20:18.979Z,67.27
2022-08-04T06:21:02.522Z,67.43
2022-08-04T06:22:01.506Z,67.93
2022-08-04T06:23:01.475Z,67.63
2022-08-04T06:24:04.464Z,67.13
2022-08-04T06:25:01.463Z,66.83
2022-08-04T06:26:01.477Z,66.94
2022-08-04T06:27:01.432Z,65.84
2022-08-04T06:28:01.440Z,65.44
2022-08-04T06:29:01.428Z,66.20
2022-08-04T06:30:01.408Z,65.01
2022-08-04T06:31:01.385Z,65.61
2022-08-04T06:32:28.673Z,66.20
2022-08-04T06:33:04.282Z,66.41
2022-08-04T06:34:01.347Z,66.61
2022-08-04T06:35:01.336Z,65.51
2022-08-04T06:36:01.336Z,66.38
2022-08-04T06:37:01.302Z,65.28
2022-08-04T06:38:02.031Z,64.98
2022-08-04T06:39:01.367Z,64.48
2022-08-04T06:40:01.277Z,65.18
2022-08-04T06:41:01.288Z,64.78
2022-08-04T06:42:17.444Z,64.25
2022-08-04T06:43:02.263Z,65.05
2022-08-04T06:44:01.227Z,63.46
2022-08-04T06:45:01.917Z,63.53
2022-08-04T06:46:01.212Z,63.03
2022-08-04T06:47:01.226Z,65.12
2022-08-04T06:48:01.172Z,64.03
2022-08-04T06:49:01.150Z,63.03
2022-08-04T06:51:28.023Z,63.49
2022-08-04T06:51:32.678Z,63.10
2022-08-04T06:52:02.144Z,64.79
2022-08-04T06:53:01.100Z,63.79
2022-08-04T06:54:01.093Z,63.79
2022-08-04T06:55:01.072Z,63.89
2022-08-04T06:56:01.055Z,62.57
2022-08-04T06:57:01.361Z,61.68
2022-08-04T06:58:03.258Z,62.07
2022-08-04T06:59:01.041Z,62.37
2022-08-04T07:00:01.038Z,62.18
2022-08-04T07:01:01.004Z,62.05
2022-08-04T07:02:01.096Z,60.75
2022-08-04T07:03:00.964Z,60.75
2022-08-04T07:04:00.978Z,61.05
2022-08-04T07:05:05.874Z,60.23
2022-08-04T07:06:06.252Z,60.43
2022-08-04T07:07:01.936Z,61.12
2022-08-04T07:08:00.928Z,61.39
2022-08-04T07:09:00.883Z,60.50
2022-08-04T07:10:00.884Z,60.60
2022-08-04T07:11:00.863Z,59.91
2022-08-04T07:12:00.863Z,60.30
2022-08-04T07:13:00.832Z,60.80
2022-08-04T07:14:00.836Z,60.89
2022-08-04T07:15:00.828Z,61.36
2022-08-04T07:16:00.817Z,60.86
2022-08-04T07:17:00.825Z,60.27
2022-08-04T07:18:00.774Z,59.18
2022-08-04T07:19:10.154Z,58.98
2022-08-04T07:20:01.766Z,59.28
2022-08-04T07:21:00.741Z,58.88
2022-08-04T07:22:16.128Z,58.95
2022-08-04T07:23:01.718Z,60.34
2022-08-04T07:24:00.726Z,59.05
2022-08-04T07:25:01.345Z,58.75
2022-08-04T07:26:12.953Z,58.86
2022-08-04T07:27:01.685Z,58.95
2022-08-04T07:28:00.669Z,58.95
2022-08-04T07:29:00.667Z,58.75
2022-08-04T07:30:00.634Z,58.65
2022-08-04T07:31:00.613Z,59.05
2022-08-04T07:32:00.645Z,59.05
2022-08-04T07:33:00.598Z,58.75
2022-08-04T07:34:17.192Z,59.84
2022-08-04T07:35:01.554Z,60.44
2022-08-04T07:36:04.727Z,60.44
2022-08-04T07:37:01.558Z,60.34
2022-08-04T07:38:00.523Z,59.75
2022-08-04T07:39:00.532Z,59.45
2022-08-04T07:40:00.586Z,59.05
2022-08-04T07:41:00.730Z,59.65
2022-08-04T07:42:01.725Z,59.45
2022-08-04T07:43:00.473Z,59.84
2022-08-04T07:44:00.459Z,58.86
2022-08-04T07:45:00.424Z,59.72
2022-08-04T07:46:00.437Z,59.52
2022-08-04T07:47:00.437Z,59.03
2022-08-04T07:48:05.097Z,58.73
2022-08-04T07:49:01.412Z,57.84
2022-08-04T07:50:00.381Z,59.12
2022-08-04T07:51:00.408Z,59.30
2022-08-04T07:52:00.351Z,58.50
2022-08-04T07:53:22.711Z,57.61
2022-08-04T07:54:01.344Z,57.41
2022-08-04T07:55:00.322Z,57.98
2022-08-04T07:56:00.295Z,58.47
2022-08-04T07:57:00.291Z,58.77
2022-08-04T07:58:00.252Z,57.98
2022-08-04T07:59:00.266Z,57.78
2022-08-04T08:00:00.296Z,56.99
2022-08-04T08:01:00.214Z,57.78
2022-08-04T08:02:00.236Z,58.07
2022-08-04T08:03:00.244Z,57.29
2022-08-04T08:04:00.297Z,56.49
2022-08-04T08:05:00.196Z,57.16
2022-08-04T08:06:18.237Z,57.06
2022-08-04T08:07:01.152Z,56.37
2022-08-04T08:08:00.157Z,56.37
2022-08-04T08:09:00.114Z,57.95
2022-08-04T08:10:00.106Z,57.26
2022-08-04T08:11:00.102Z,56.34
2022-08-04T08:12:35.113Z,56.34
2022-08-04T08:13:01.076Z,57.13
2022-08-04T08:14:00.064Z,56.74
2022-08-04T08:15:00.045Z,56.14
2022-08-04T08:16:00.061Z,56.12
2022-08-04T08:17:00.035Z,55.62
2022-08-04T08:18:00.850Z,56.61
2022-08-04T08:18:59.982Z,55.03
2022-08-04T08:20:00.005Z,56.12
2022-08-04T08:20:59.966Z,56.21
2022-08-04T08:22:01.148Z,55.13
2022-08-04T08:22:59.952Z,54.24
2022-08-04T08:23:59.934Z,54.63
2022-08-04T08:24:59.912Z,56.21
2022-08-04T08:26:00.140Z,54.71
2022-08-04T08:26:59.889Z,55.10
2022-08-04T08:27:59.882Z,54.11
2022-08-04T08:28:59.867Z,53.81
2022-08-04T08:29:59.854Z,54.21
2022-08-04T08:30:59.842Z,54.78
2022-08-04T08:32:07.024Z,55.27
2022-08-04T08:33:00.806Z,55.18
2022-08-04T08:33:59.817Z,53.50
2022-08-04T08:34:59.803Z,53.89
2022-08-04T08:35:59.781Z,55.27
2022-08-04T08:36:59.751Z,54.26
2022-08-04T08:37:59.768Z,53.57
2022-08-04T08:38:59.765Z,53.57
2022-08-04T08:39:59.711Z,54.33
2022-08-04T08:40:59.707Z,54.13
2022-08-04T08:41:59.694Z,54.03
2022-08-04T08:42:59.677Z,53.42
2022-08-04T08:44:05.527Z,53.81
2022-08-04T08:45:00.643Z,54.01
2022-08-04T08:45:59.655Z,52.73
2022-08-04T08:46:59.655Z,52.63
2022-08-04T08:48:06.193Z,52.33
2022-08-04T08:49:00.605Z,52.50
2022-08-04T08:50:00.989Z,53.30
2022-08-04T08:50:59.578Z,52.80
2022-08-04T08:51:59.580Z,52.01
2022-08-04T08:53:02.254Z,52.97
2022-08-04T08:53:59.531Z,51.69
2022-08-04T08:54:59.523Z,51.69
2022-08-04T08:55:59.510Z,52.68
2022-08-04T08:56:59.528Z,52.48
2022-08-04T08:58:00.776Z,51.30
2022-08-04T08:58:59.477Z,50.90
2022-08-04T08:59:59.466Z,50.39
2022-08-04T09:00:59.444Z,50.98
2022-08-04T09:01:59.518Z,51.28
2022-08-04T09:03:04.822Z,52.26
2022-08-04T09:04:00.412Z,51.28
2022-08-04T09:04:59.464Z,52.55
2022-08-04T09:05:59.392Z,52.72
2022-08-04T09:06:59.414Z,51.74
2022-08-04T09:07:59.418Z,51.93
2022-08-04T09:08:59.356Z,49.97
2022-08-04T09:09:59.330Z,50.16
2022-08-04T09:10:59.316Z,49.87
2022-08-04T09:11:59.311Z,49.35
2022-08-04T09:12:59.326Z,50.14
2022-08-04T09:13:59.291Z,50.83
2022-08-04T09:14:59.295Z,51.81
2022-08-04T09:15:59.275Z,50.14
2022-08-04T09:16:59.251Z,49.95
2022-08-04T09:17:59.252Z,50.44
2022-08-04T09:18:59.232Z,49.65
2022-08-04T09:19:59.219Z,49.35
2022-08-04T09:20:59.204Z,49.95
2022-08-04T09:21:59.172Z,49.65
2022-08-04T09:22:59.175Z,50.44
2022-08-04T09:23:59.905Z,50.56
2022-08-04T09:25:01.074Z,49.28
2022-08-04T09:25:59.467Z,49.38
2022-08-04T09:27:00.291Z,51.42
2022-08-04T09:28:02.904Z,51.81
2022-08-04T09:29:01.068Z,52.70
2022-08-04T09:29:59.087Z,52.21
2022-08-04T09:30:59.061Z,50.32
2022-08-04T09:32:07.502Z,51.59
2022-08-04T09:33:00.043Z,51.30
2022-08-04T09:33:59.022Z,51.17
2022-08-04T09:35:03.305Z,48.72
2022-08-04T09:36:00.038Z,48.82
2022-08-04T09:36:58.984Z,49.68
2022-08-04T09:37:58.993Z,50.27
2022-08-04T09:38:59.011Z,49.77
2022-08-04T09:39:58.950Z,49.19
2022-08-04T09:40:58.973Z,49.87
2022-08-04T09:41:59.651Z,50.27
2022-08-04T09:42:58.929Z,48.69
2022-08-04T09:44:52.267Z,47.52
2022-08-04T09:45:06.353Z,47.03
2022-08-04T09:45:59.882Z,46.93
2022-08-04T09:46:59.643Z,48.01
2022-08-04T09:47:58.883Z,49.87
2022-08-04T09:49:02.921Z,49.46
2022-08-04T09:50:07.643Z,49.55
2022-08-04T09:50:58.803Z,49.85
2022-08-04T09:52:01.576Z,49.24
2022-08-04T09:52:59.494Z,48.25
2022-08-04T09:53:58.814Z,47.96
2022-08-04T09:54:58.752Z,47.17
2022-08-04T09:56:02.833Z,46.39
2022-08-04T09:56:58.748Z,45.41
2022-08-04T09:57:58.725Z,47.08
2022-08-04T09:58:58.712Z,46.88
2022-08-04T09:59:58.702Z,45.90
2022-08-04T10:00:58.688Z,47.17
2022-08-04T10:01:58.884Z,45.80
2022-08-04T10:02:58.738Z,47.59
2022-08-04T10:03:58.634Z,48.47
2022-08-04T10:04:58.636Z,47.20
2022-08-04T10:05:58.636Z,47.20
2022-08-04T10:06:58.607Z,47.69
2022-08-04T10:08:15.087Z,46.91
2022-08-04T10:08:59.582Z,46.41
2022-08-04T10:09:58.553Z,45.73
2022-08-04T10:10:58.543Z,46.71
2022-08-04T10:11:58.548Z,47.08
2022-08-04T10:12:58.533Z,47.77
2022-08-04T10:13:58.503Z,47.86
2022-08-04T10:14:58.505Z,46.39
2022-08-04T10:15:58.487Z,46.20
2022-08-04T10:16:58.464Z,46.20
2022-08-04T10:17:58.488Z,46.00
2022-08-04T10:18:58.454Z,47.27
2022-08-04T10:19:59.437Z,47.86
2022-08-04T10:21:02.959Z,47.37
2022-08-04T10:22:28.077Z,47.47
2022-08-04T10:23:10.985Z,48.45
2022-08-04T10:24:00.065Z,47.69
2022-08-04T10:24:58.367Z,46.81
2022-08-04T10:26:05.350Z,46.71
2022-08-04T10:26:59.357Z,45.95
2022-08-04T10:27:58.337Z,46.44
2022-08-04T10:28:58.348Z,47.42
2022-08-04T10:29:58.314Z,46.73
2022-08-04T10:30:58.296Z,48.69
2022-08-04T10:31:58.275Z,46.73
2022-08-04T10:32:58.278Z,46.53
2022-08-04T10:33:58.275Z,46.44
2022-08-04T10:34:58.367Z,46.14
2022-08-04T10:35:58.240Z,45.85
2022-08-04T10:36:58.218Z,45.85
2022-08-04T10:38:01.207Z,45.53
2022-08-04T10:38:58.263Z,45.83
2022-08-04T10:39:58.236Z,44.16
2022-08-04T10:40:58.184Z,44.74
2022-08-04T10:41:59.697Z,43.86
2022-08-04T10:42:58.145Z,44.55
2022-08-04T10:43:58.153Z,46.59
2022-08-04T10:44:58.391Z,44.73
2022-08-04T10:45:58.511Z,44.53
2022-08-04T10:46:58.117Z,45.21
2022-08-04T10:47:58.088Z,45.12
2022-08-04T10:48:58.100Z,45.04
2022-08-04T10:49:58.056Z,44.94
2022-08-04T10:50:58.050Z,45.02
2022-08-04T10:51:59.608Z,46.20
2022-08-04T10:52:58.014Z,45.31
2022-08-04T10:53:58.002Z,45.70
2022-08-04T10:54:58.028Z,44.82
2022-08-04T10:56:07.353Z,44.60
2022-08-04T10:56:58.981Z,44.80
2022-08-04T10:57:57.972Z,43.99
2022-08-04T10:58:57.937Z,44.68
2022-08-04T10:59:59.090Z,44.27
2022-08-04T11:00:58.915Z,44.17
2022-08-04T11:02:02.721Z,44.09
2022-08-04T11:02:58.996Z,44.95
2022-08-04T11:03:57.890Z,44.58
2022-08-04T11:04:57.910Z,44.76
2022-08-04T11:05:57.860Z,43.77
2022-08-04T11:06:57.861Z,43.76
2022-08-04T11:07:57.827Z,43.76
2022-08-04T11:08:57.835Z,42.58
2022-08-04T11:09:57.818Z,42.68
2022-08-04T11:10:57.809Z,44.05
2022-08-04T11:12:01.407Z,43.07
2022-08-04T11:12:57.781Z,44.81
2022-08-04T11:13:57.743Z,43.93
2022-08-04T11:14:57.786Z,43.93
2022-08-04T11:15:57.769Z,44.23
2022-08-04T11:16:57.711Z,43.76
2022-08-04T11:17:57.695Z,44.93
2022-08-04T11:18:57.739Z,44.64
2022-08-04T11:20:18.128Z,44.44
2022-08-04T11:20:58.709Z,42.88
2022-08-04T11:21:57.660Z,43.05
2022-08-04T11:22:57.639Z,43.24
2022-08-04T11:23:57.625Z,44.13
2022-08-04T11:24:57.630Z,44.71
2022-08-04T11:25:57.608Z,44.83
2022-08-04T11:26:57.646Z,44.34
2022-08-04T11:27:57.574Z,44.07
2022-08-04T11:29:03.210Z,45.17
2022-08-04T11:29:58.541Z,45.76
2022-08-04T11:30:57.571Z,45.47
2022-08-04T11:31:57.536Z,45.56
2022-08-04T11:32:57.507Z,45.49
2022-08-04T11:33:57.498Z,45.98
2022-08-04T11:34:57.501Z,46.17
2022-08-04T11:35:57.500Z,46.66
2022-08-04T11:36:57.457Z,45.78
2022-08-04T11:37:57.460Z,45.78
2022-08-04T11:38:57.498Z,45.59
2022-08-04T11:39:57.424Z,45.78
2022-08-04T11:41:03.135Z,46.08
2022-08-04T11:41:58.415Z,46.17
2022-08-04T11:42:57.410Z,46.56
2022-08-04T11:44:02.938Z,45.39
2022-08-04T11:44:58.361Z,45.78
2022-08-04T11:45:57.358Z,45.68
2022-08-04T11:46:57.353Z,46.08
2022-08-04T11:47:57.327Z,45.59
2022-08-04T11:48:57.380Z,45.68
2022-08-04T11:49:58.271Z,45.88
2022-08-04T11:50:57.310Z,46.47
2022-08-04T11:51:57.289Z,45.88
2022-08-04T11:52:57.268Z,46.49
2022-08-04T11:53:57.248Z,46.59
2022-08-04T11:54:57.262Z,46.51
2022-08-04T11:56:07.877Z,47.30
2022-08-04T11:56:58.218Z,47.30
2022-08-04T11:57:57.222Z,47.42
2022-08-04T11:58:57.184Z,47.32
2022-08-04T11:59:57.210Z,47.42
2022-08-04T12:00:58.178Z,48.23
2022-08-04T12:01:57.215Z,48.43
2022-08-04T12:02:57.149Z,48.13
2022-08-04T12:04:03.414Z,48.03
2022-08-04T12:04:58.117Z,48.62
2022-08-04T12:05:57.090Z,47.83
2022-08-04T12:07:15.045Z,48.62
2022-08-04T12:07:58.095Z,49.21
2022-08-04T12:08:57.057Z,48.89
2022-08-04T12:09:57.053Z,48.79
2022-08-04T12:10:57.038Z,48.99
2022-08-04T12:11:57.057Z,49.58
2022-08-04T12:12:57.047Z,48.50
2022-08-04T12:14:00.612Z,48.69
2022-08-04T12:14:56.998Z,48.69
2022-08-04T12:15:56.993Z,48.60
2022-08-04T12:16:56.957Z,49.87
2022-08-04T12:17:56.971Z,49.38
2022-08-04T12:18:56.957Z,49.48
2022-08-04T12:20:03.706Z,49.38
2022-08-04T12:20:57.920Z,49.48
2022-08-04T12:21:57.049Z,49.19
2022-08-04T12:22:56.904Z,49.38
2022-08-04T12:24:00.554Z,49.87
2022-08-04T12:24:56.875Z,49.68
2022-08-04T12:25:56.841Z,50.07
2022-08-04T12:26:56.849Z,50.56
2022-08-04T12:27:56.860Z,49.68
2022-08-04T12:29:12.296Z,50.46
2022-08-04T12:30:58.484Z,50.27
2022-08-04T12:31:03.311Z,51.64
2022-08-04T12:31:57.780Z,50.68
2022-08-04T12:32:56.768Z,50.78
2022-08-04T12:34:04.167Z,50.39
2022-08-04T12:34:57.738Z,50.88
2022-08-04T12:35:58.031Z,50.49
2022-08-04T12:36:57.707Z,50.39
2022-08-04T12:37:56.748Z,50.98
2022-08-04T12:38:56.731Z,49.80
2022-08-04T12:40:29.118Z,49.99
2022-08-04T12:40:58.623Z,49.31
2022-08-04T12:41:56.700Z,51.40
2022-08-04T12:42:59.758Z,51.59
2022-08-04T12:43:56.626Z,49.63
2022-08-04T12:44:56.623Z,49.33
2022-08-04T12:45:56.602Z,49.73
2022-08-04T12:46:56.636Z,49.33
2022-08-04T12:47:57.631Z,48.15
2022-08-04T12:48:56.568Z,48.25
2022-08-04T12:50:00.729Z,48.94
2022-08-04T12:50:57.570Z,48.74
2022-08-04T12:52:08.221Z,48.94